New Orleans, Louisiana
Traffic Map
Current Weather Conditions
New Orleans, Louisiana
Clear
Clear
84°
Feels Like: 93°
Wind Chill: 84° Ceiling: Unl
Heat Index: 93° Visibility: 10mi
Dew Point: 76° Wind: 3mph
Humidity: 76% Direction: 310° (NW)
Pressure: 29.99in Gusts: 0mph
Raw Report DataKNEW 200553Z AUTO 31003KT 10SM CLR 29/24 A2999 RMK AO2 SLP150 T02890244 10306 20256 403440256 53001
Traffic Incident Summary
Active as of:
Severity:
Category:
InformationThere was an issue retrieving the traffic information for this location. Please try a different location or try again shortly.
Advertisements